Time;durP1;ratioP1;P1;durP2;ratioP2;P2;SDS_P1;SDS_P2;PMS_P1;PMS_P2;Temp;Humidity;BMP_temperature;BMP_pressure;BME280_temperature;BME280_humidity;BME280_pressure;Samples;Min_cycle;Max_cycle;Signal;HPM_P1;HPM_P2
2021/09/29 00:01:36;;;;;;;16.57;8.57;;;15.10;99.90;;;;;;5054336;28;20797;-72
2021/09/29 00:04:03;;;;;;;9.77;8.20;;;15.10;99.90;;;;;;5054208;28;20497;-71
2021/09/29 00:06:30;;;;;;;9.03;6.93;;;15.10;99.90;;;;;;5054198;28;20484;-72
2021/09/29 00:08:57;;;;;;;10.43;8.20;;;15.10;99.90;;;;;;5054309;28;20951;-71
2021/09/29 00:11:24;;;;;;;11.90;8.57;;;15.00;99.90;;;;;;5056510;28;20462;-72
2021/09/29 00:13:50;;;;;;;11.03;7.47;;;15.00;99.90;;;;;;5058082;28;20479;-72
2021/09/29 00:16:17;;;;;;;12.90;7.80;;;15.00;99.90;;;;;;5057921;28;20497;-72
2021/09/29 00:18:45;;;;;;;12.80;8.50;;;15.00;99.90;;;;;;5058558;28;20467;-71
2021/09/29 00:21:12;;;;;;;12.13;8.17;;;15.00;99.90;;;;;;5058245;28;20462;-71
2021/09/29 00:23:39;;;;;;;10.83;8.10;;;15.00;99.90;;;;;;5058223;28;20443;-72
2021/09/29 00:26:06;;;;;;;13.33;8.17;;;15.00;99.90;;;;;;5058494;28;20463;-71
2021/09/29 00:28:33;;;;;;;12.50;7.37;;;15.00;99.90;;;;;;5057965;28;20464;-72
2021/09/29 00:31:04;;;;;;;12.60;8.17;;;15.00;99.90;;;;;;5058140;28;20911;-72
2021/09/29 00:33:34;;;;;;;8.90;6.97;;;15.00;99.90;;;;;;5058090;28;20448;-71
2021/09/29 00:36:02;;;;;;;11.10;8.00;;;14.90;99.90;;;;;;5057893;28;20986;-72
2021/09/29 00:38:31;;;;;;;7.17;6.47;;;14.90;99.90;;;;;;5058051;28;20455;-72
2021/09/29 00:40:58;;;;;;;9.40;6.90;;;14.90;99.90;;;;;;5058070;28;20839;-72
2021/09/29 00:43:25;;;;;;;8.03;6.90;;;14.90;99.90;;;;;;5057984;28;20473;-72
2021/09/29 00:45:52;;;;;;;10.07;6.97;;;14.90;99.90;;;;;;5057699;28;20955;-71
2021/09/29 00:48:19;;;;;;;13.23;7.63;;;14.80;99.90;;;;;;5058211;28;20494;-72
2021/09/29 00:50:46;;;;;;;7.03;6.13;;;14.80;99.90;;;;;;5057575;28;20483;-72
2021/09/29 00:53:14;;;;;;;13.73;7.03;;;14.80;99.90;;;;;;5057999;28;20456;-71
2021/09/29 00:55:41;;;;;;;9.73;6.80;;;14.80;99.90;;;;;;5057862;28;20478;-72
2021/09/29 00:58:07;;;;;;;8.37;7.10;;;14.80;99.90;;;;;;5057545;28;20459;-71
2021/09/29 01:00:34;;;;;;;9.90;6.50;;;14.80;99.90;;;;;;5057633;28;20793;-72
2021/09/29 01:03:01;;;;;;;12.90;6.50;;;14.70;99.90;;;;;;5057656;28;20467;-72
2021/09/29 01:05:29;;;;;;;8.20;6.57;;;14.70;99.90;;;;;;5057337;28;20458;-71
2021/09/29 01:08:00;;;;;;;9.33;6.67;;;14.70;99.90;;;;;;5057491;28;20493;-72
2021/09/29 01:10:37;;;;;;;9.47;6.30;;;14.70;99.90;;;;;;5057241;28;20469;-71
2021/09/29 01:13:11;;;;;;;9.33;6.83;;;14.70;99.90;;;;;;5057641;28;20456;-72
2021/09/29 01:15:45;;;;;;;9.40;6.73;;;14.70;99.90;;;;;;5057172;28;20501;-72
2021/09/29 01:18:14;;;;;;;9.27;6.60;;;14.60;99.90;;;;;;5057419;28;20836;-72
2021/09/29 01:20:46;;;;;;;11.70;6.77;;;14.60;99.90;;;;;;5057342;28;20804;-71
2021/09/29 01:23:34;;;;;;;7.80;7.00;;;14.60;99.90;;;;;;5056420;28;20553;-71
2021/09/29 01:26:14;;;;;;;9.80;6.70;;;14.60;99.90;;;;;;5057283;28;20762;-71
2021/09/29 01:28:46;;;;;;;7.87;6.80;;;14.50;99.90;;;;;;5057294;28;20797;-72
2021/09/29 01:31:14;;;;;;;8.17;6.90;;;14.50;99.90;;;;;;5056904;28;20431;-72
2021/09/29 01:33:43;;;;;;;7.40;6.50;;;14.50;99.90;;;;;;5057088;28;20752;-72
2021/09/29 01:36:10;;;;;;;10.80;6.53;;;14.50;99.90;;;;;;5056864;28;20452;-73
2021/09/29 01:38:39;;;;;;;11.03;7.00;;;14.50;99.90;;;;;;5057161;28;20451;-72
2021/09/29 01:41:05;;;;;;;11.40;6.60;;;14.50;99.90;;;;;;5057068;28;20454;-72
2021/09/29 01:43:34;;;;;;;8.07;6.30;;;14.50;99.90;;;;;;5056988;28;20497;-71
2021/09/29 01:46:01;;;;;;;10.20;6.43;;;14.50;99.90;;;;;;5056665;28;20452;-71
2021/09/29 01:48:28;;;;;;;8.03;6.63;;;14.50;99.90;;;;;;5056580;28;20497;-72
2021/09/29 01:50:59;;;;;;;11.77;6.30;;;14.50;99.90;;;;;;5056817;28;20891;-70
2021/09/29 01:53:29;;;;;;;9.40;6.50;;;14.50;99.90;;;;;;5056800;28;20884;-70
2021/09/29 01:55:57;;;;;;;11.63;6.33;;;14.50;99.90;;;;;;5056678;28;20439;-71
2021/09/29 01:58:24;;;;;;;10.87;7.10;;;14.50;99.90;;;;;;5057188;28;20935;-70
2021/09/29 02:00:55;;;;;;;8.80;6.40;;;14.50;99.90;;;;;;5056674;28;20462;-70
2021/09/29 02:03:22;;;;;;;10.67;6.67;;;14.60;99.90;;;;;;5056709;28;20753;-70
2021/09/29 02:05:50;;;;;;;7.67;6.50;;;14.60;99.90;;;;;;5056095;28;20461;-72
2021/09/29 02:08:19;;;;;;;10.07;7.27;;;14.60;99.90;;;;;;5056624;28;20492;-70
2021/09/29 02:10:45;;;;;;;12.50;7.90;;;14.70;99.90;;;;;;5056606;28;20469;-70
2021/09/29 02:13:12;;;;;;;9.93;6.60;;;14.70;99.90;;;;;;5056294;28;20453;-70
2021/09/29 02:15:39;;;;;;;8.33;6.23;;;14.80;99.90;;;;;;5055961;28;20969;-70
2021/09/29 02:18:07;;;;;;;10.77;7.10;;;14.90;99.90;;;;;;5056352;28;20454;-71
2021/09/29 02:20:34;;;;;;;10.87;7.07;;;14.90;99.90;;;;;;5056540;28;20838;-72
2021/09/29 02:23:01;;;;;;;12.57;7.70;;;15.00;99.90;;;;;;5056131;28;20457;-72
2021/09/29 02:25:27;;;;;;;9.10;7.03;;;15.00;99.90;;;;;;5056152;28;20462;-72
2021/09/29 02:27:54;;;;;;;9.87;6.43;;;15.10;99.90;;;;;;5055990;28;20488;-72
2021/09/29 02:30:22;;;;;;;7.20;6.50;;;15.10;99.90;;;;;;5055731;28;20462;-72
2021/09/29 02:32:49;;;;;;;7.70;6.10;;;15.10;99.90;;;;;;5056126;28;20456;-72
2021/09/29 02:35:18;;;;;;;9.63;6.70;;;15.10;99.90;;;;;;5055591;28;20924;-72
2021/09/29 02:37:45;;;;;;;9.07;7.07;;;15.20;99.90;;;;;;5056342;28;20475;-72
2021/09/29 02:40:12;;;;;;;7.43;6.57;;;15.20;99.90;;;;;;5055610;28;20923;-72
2021/09/29 02:42:39;;;;;;;8.90;6.33;;;15.30;99.90;;;;;;5055857;28;20469;-71
2021/09/29 02:45:07;;;;;;;10.43;6.23;;;15.30;99.90;;;;;;5055549;28;20466;-71
2021/09/29 02:47:33;;;;;;;13.97;6.33;;;15.30;99.90;;;;;;5055560;28;20550;-72
2021/09/29 02:50:00;;;;;;;7.43;6.73;;;15.30;99.90;;;;;;5055563;28;20463;-71
2021/09/29 02:52:28;;;;;;;13.47;8.10;;;15.40;99.90;;;;;;5055287;28;20941;-71
2021/09/29 02:54:56;;;;;;;10.63;6.63;;;15.40;99.90;;;;;;5055019;28;20474;-72
2021/09/29 02:57:23;;;;;;;13.83;8.07;;;15.40;99.90;;;;;;5055446;28;20463;-72
2021/09/29 02:59:50;;;;;;;13.60;8.63;;;15.40;99.90;;;;;;5054955;28;20475;-72
2021/09/29 03:02:16;;;;;;;10.20;8.63;;;15.40;99.90;;;;;;5055236;28;20947;-72
2021/09/29 03:04:43;;;;;;;15.60;8.43;;;15.40;99.90;;;;;;5055087;28;20924;-72
2021/09/29 03:07:10;;;;;;;12.83;8.07;;;15.40;99.90;;;;;;5055727;28;20816;-72
2021/09/29 03:09:38;;;;;;;17.83;9.33;;;15.50;99.90;;;;;;5055063;28;20467;-72
2021/09/29 03:12:05;;;;;;;15.93;10.23;;;15.50;99.90;;;;;;5054698;28;20917;-72
2021/09/29 03:14:32;;;;;;;14.50;8.70;;;15.50;99.90;;;;;;5055833;28;20781;-71
2021/09/29 03:16:59;;;;;;;14.57;8.37;;;15.50;99.90;;;;;;5054910;28;20494;-72
2021/09/29 03:19:27;;;;;;;20.43;9.20;;;15.50;99.90;;;;;;5055031;28;20938;-72
2021/09/29 03:21:53;;;;;;;14.50;9.10;;;15.50;99.90;;;;;;5055399;28;20543;-72
2021/09/29 03:24:20;;;;;;;18.30;8.93;;;15.50;99.90;;;;;;5055668;28;20469;-72
2021/09/29 03:26:50;;;;;;;18.63;9.20;;;15.50;99.90;;;;;;5055110;28;20460;-72
2021/09/29 03:29:17;;;;;;;22.27;11.07;;;15.60;99.90;;;;;;5054964;28;20486;-72
2021/09/29 03:31:43;;;;;;;19.43;9.83;;;15.60;99.90;;;;;;5055448;28;20466;-72
2021/09/29 03:34:10;;;;;;;19.40;10.90;;;15.60;99.90;;;;;;5055133;28;20451;-72
2021/09/29 03:36:37;;;;;;;19.87;11.50;;;15.60;99.90;;;;;;5055016;28;20470;-72
2021/09/29 03:39:04;;;;;;;21.00;11.73;;;15.60;99.90;;;;;;5055127;28;20448;-72
2021/09/29 03:41:31;;;;;;;20.20;11.27;;;15.60;99.90;;;;;;5055227;28;20765;-72
2021/09/29 03:43:59;;;;;;;23.50;12.40;;;15.60;99.90;;;;;;5055242;28;20471;-70
2021/09/29 03:46:26;;;;;;;23.83;11.63;;;15.60;99.90;;;;;;5059296;28;20458;-70
2021/09/29 03:48:53;;;;;;;24.67;11.67;;;15.60;99.90;;;;;;5061759;28;20482;-71
2021/09/29 03:51:19;;;;;;;27.77;12.80;;;15.60;99.90;;;;;;5061577;28;20463;-71
2021/09/29 03:53:46;;;;;;;24.50;12.00;;;15.70;99.90;;;;;;5062176;28;20812;-71
2021/09/29 03:56:13;;;;;;;25.60;12.00;;;15.70;99.90;;;;;;5062178;28;20463;-71
2021/09/29 03:58:40;;;;;;;34.70;12.70;;;15.70;99.90;;;;;;5061880;28;20482;-71
2021/09/29 04:01:08;;;;;;;23.77;11.57;;;15.70;99.90;;;;;;5062197;28;20455;-71
2021/09/29 04:03:34;;;;;;;23.73;12.30;;;15.70;99.90;;;;;;5062215;28;20460;-72
2021/09/29 04:06:01;;;;;;;23.47;12.40;;;15.70;99.90;;;;;;5062176;28;20459;-71
2021/09/29 04:08:28;;;;;;;29.27;12.90;;;15.70;99.90;;;;;;5062411;28;20482;-71
2021/09/29 04:10:56;;;;;;;30.70;13.87;;;15.70;99.90;;;;;;5061658;28;20459;-71
2021/09/29 04:13:22;;;;;;;28.30;13.70;;;15.70;99.90;;;;;;5061288;28;20788;-71
2021/09/29 04:15:52;;;;;;;28.93;12.73;;;15.70;99.90;;;;;;5061071;28;20486;-72
2021/09/29 04:18:20;;;;;;;34.27;13.93;;;15.70;99.90;;;;;;5060935;28;20452;-71
2021/09/29 04:20:47;;;;;;;31.10;15.70;;;15.70;99.90;;;;;;5060502;28;20459;-71
2021/09/29 04:23:14;;;;;;;30.10;12.93;;;15.70;99.90;;;;;;5060952;28;20462;-71
2021/09/29 04:25:42;;;;;;;34.00;14.00;;;15.70;99.90;;;;;;5061542;28;20802;-71
2021/09/29 04:28:09;;;;;;;36.17;16.07;;;15.70;99.90;;;;;;5060248;28;20481;-71
2021/09/29 04:30:35;;;;;;;36.73;15.00;;;15.80;99.90;;;;;;5060499;28;20463;-71
2021/09/29 04:33:02;;;;;;;35.30;14.40;;;15.80;99.90;;;;;;5060732;28;20470;-71
2021/09/29 04:35:31;;;;;;;33.50;15.83;;;15.80;99.90;;;;;;5060906;28;20466;-71
2021/09/29 04:37:58;;;;;;;31.80;14.10;;;15.80;99.90;;;;;;5060730;28;20455;-74
2021/09/29 04:40:24;;;;;;;35.17;15.50;;;15.80;99.90;;;;;;5060743;28;20810;-72
2021/09/29 04:42:51;;;;;;;34.77;16.37;;;15.80;99.90;;;;;;5060309;28;20466;-72
2021/09/29 04:45:18;;;;;;;40.83;16.87;;;15.80;99.90;;;;;;5060727;28;20770;-72
2021/09/29 04:47:44;;;;;;;28.20;14.60;;;15.80;99.90;;;;;;5060549;28;20479;-72
2021/09/29 04:50:11;;;;;;;36.47;16.60;;;15.80;99.90;;;;;;5060494;28;20521;-72
2021/09/29 04:52:39;;;;;;;40.30;17.97;;;15.80;99.90;;;;;;5060892;28;20466;-72
2021/09/29 04:55:06;;;;;;;41.40;17.50;;;15.90;99.90;;;;;;5060848;28;20462;-72
2021/09/29 04:57:36;;;;;;;40.37;17.63;;;15.90;99.90;;;;;;5057698;28;20467;-72
2021/09/29 05:00:04;;;;;;;140.73;84.43;;;15.90;99.90;;;;;;5057300;28;20793;-72
2021/09/29 05:02:32;;;;;;;49.57;22.37;;;15.90;99.90;;;;;;5057645;28;20536;-72
2021/09/29 05:04:59;;;;;;;37.90;16.37;;;15.80;99.90;;;;;;5057529;28;20459;-72
2021/09/29 05:07:26;;;;;;;40.17;17.50;;;15.90;99.90;;;;;;5057151;28;20455;-70
2021/09/29 05:09:54;;;;;;;32.70;17.30;;;15.90;99.90;;;;;;5056791;28;20448;-73
2021/09/29 05:12:27;;;;;;;39.10;16.23;;;15.90;99.90;;;;;;5056905;28;20464;-72
2021/09/29 05:14:55;;;;;;;45.53;17.60;;;15.80;99.90;;;;;;5056777;28;20546;-71
2021/09/29 05:17:22;;;;;;;46.40;18.80;;;15.80;99.90;;;;;;5057463;28;20544;-71
2021/09/29 05:19:48;;;;;;;37.57;16.77;;;15.90;99.90;;;;;;5056856;28;20459;-71
2021/09/29 05:22:16;;;;;;;38.17;17.20;;;15.80;99.90;;;;;;5056830;28;20456;-72
2021/09/29 05:24:42;;;;;;;38.83;15.63;;;15.90;99.90;;;;;;5056837;28;20455;-72
2021/09/29 05:27:11;;;;;;;33.00;15.53;;;15.90;99.90;;;;;;5056577;28;20469;-72
2021/09/29 05:29:40;;;;;;;37.30;17.07;;;15.90;99.90;;;;;;5056780;28;20497;-72
2021/09/29 05:32:08;;;;;;;36.50;15.67;;;15.80;99.90;;;;;;5056629;28;20463;-72
2021/09/29 05:34:35;;;;;;;37.70;16.53;;;15.90;99.90;;;;;;5057190;28;20530;-72
2021/09/29 05:37:03;;;;;;;34.50;15.70;;;15.90;99.90;;;;;;5057075;28;20455;-72
2021/09/29 05:39:29;;;;;;;40.27;16.90;;;15.90;99.90;;;;;;5056713;28;20455;-71
2021/09/29 05:41:57;;;;;;;39.50;17.37;;;15.90;99.90;;;;;;5056938;28;20459;-72
2021/09/29 05:44:25;;;;;;;35.43;17.40;;;15.90;99.90;;;;;;5056987;28;20460;-71
2021/09/29 05:46:52;;;;;;;34.23;16.33;;;15.90;99.90;;;;;;5056511;28;20759;-72
2021/09/29 05:49:19;;;;;;;34.93;16.60;;;16.00;99.90;;;;;;5057125;28;20483;-72
2021/09/29 05:51:47;;;;;;;38.80;18.27;;;16.00;99.90;;;;;;5057230;28;20486;-72
2021/09/29 05:54:14;;;;;;;38.80;18.00;;;16.00;99.90;;;;;;5059287;28;20794;-72
2021/09/29 05:56:41;;;;;;;35.33;16.03;;;16.00;99.90;;;;;;5061117;28;20455;-72
2021/09/29 05:59:08;;;;;;;31.57;16.20;;;16.10;99.90;;;;;;5060363;28;20786;-73
2021/09/29 06:01:36;;;;;;;36.40;18.67;;;16.10;99.90;;;;;;5058545;28;20452;-73
2021/09/29 06:04:03;;;;;;;39.73;17.10;;;16.10;99.90;;;;;;5062350;28;20466;-72
2021/09/29 06:06:29;;;;;;;35.57;17.23;;;16.10;99.90;;;;;;5064723;28;20477;-72
2021/09/29 06:08:56;;;;;;;37.70;16.53;;;16.20;99.90;;;;;;5063821;28;20475;-72
2021/09/29 06:11:23;;;;;;;30.87;15.97;;;16.20;99.90;;;;;;5060554;28;20480;-72
2021/09/29 06:13:50;;;;;;;39.00;18.27;;;16.20;99.90;;;;;;5060992;28;20466;-72
2021/09/29 06:16:17;;;;;;;33.20;17.77;;;16.30;99.90;;;;;;5060534;28;20483;-72
2021/09/29 06:18:48;;;;;;;35.90;18.00;;;16.30;99.90;;;;;;5058380;28;20455;-72
2021/09/29 06:21:17;;;;;;;34.07;16.43;;;16.40;99.90;;;;;;5058587;28;20441;-73
2021/09/29 06:23:44;;;;;;;38.57;18.17;;;16.40;99.90;;;;;;5062077;28;20451;-72
2021/09/29 06:26:11;;;;;;;30.10;16.23;;;16.40;99.90;;;;;;5063506;28;20451;-72
2021/09/29 06:28:38;;;;;;;34.00;17.77;;;16.50;99.90;;;;;;5063265;28;20488;-72
2021/09/29 06:31:06;;;;;;;36.30;18.10;;;16.50;99.90;;;;;;5062761;28;20892;-72
2021/09/29 06:33:33;;;;;;;37.07;18.03;;;16.50;99.90;;;;;;5059926;28;20463;-72
2021/09/29 06:36:01;;;;;;;36.93;18.87;;;16.50;99.90;;;;;;5055626;28;20550;-72
2021/09/29 06:38:28;;;;;;;39.83;20.87;;;16.50;99.90;;;;;;5056329;28;20456;-72
2021/09/29 06:40:55;;;;;;;28.40;15.10;;;16.60;99.90;;;;;;5055992;28;20474;-72
2021/09/29 06:43:22;;;;;;;27.20;14.53;;;16.60;99.90;;;;;;5055568;28;20478;-72
2021/09/29 06:45:50;;;;;;;31.50;16.40;;;16.70;99.90;;;;;;5055187;28;20485;-72
2021/09/29 06:48:16;;;;;;;34.17;19.97;;;16.80;99.90;;;;;;5055719;28;20483;-72
2021/09/29 06:50:43;;;;;;;25.77;14.77;;;16.90;99.90;;;;;;5055229;28;20494;-73
2021/09/29 06:53:18;;;;;;;29.67;16.37;;;17.00;99.90;;;;;;5055416;28;20517;-73
2021/09/29 06:55:44;;;;;;;36.93;20.00;;;17.00;99.90;;;;;;5057593;28;20446;-73
2021/09/29 06:58:11;;;;;;;33.37;19.77;;;17.10;99.90;;;;;;5055679;28;20456;-71
2021/09/29 07:00:38;;;;;;;36.30;20.67;;;17.10;99.90;;;;;;5055430;28;20470;-72
2021/09/29 07:03:05;;;;;;;42.17;22.00;;;17.10;99.90;;;;;;5054354;28;20938;-72
2021/09/29 07:05:32;;;;;;;40.23;23.33;;;17.10;99.90;;;;;;5054504;28;20455;-72
2021/09/29 07:08:00;;;;;;;36.47;21.50;;;17.10;99.90;;;;;;5054555;28;20464;-71
2021/09/29 07:10:29;;;;;;;39.10;19.53;;;17.10;99.90;;;;;;5054858;28;20909;-71
2021/09/29 07:12:57;;;;;;;36.47;21.13;;;17.20;99.90;;;;;;5054637;28;20459;-72
2021/09/29 07:15:25;;;;;;;33.63;19.90;;;17.20;99.90;;;;;;5054947;28;20549;-72
2021/09/29 07:17:57;;;;;;;34.07;21.90;;;17.20;99.90;;;;;;5055320;28;20470;-72
2021/09/29 07:20:24;;;;;;;38.10;21.30;;;17.20;99.90;;;;;;5054081;28;20436;-72
2021/09/29 07:22:51;;;;;;;37.67;20.80;;;17.20;99.90;;;;;;5054716;28;20542;-72
2021/09/29 07:25:18;;;;;;;37.83;21.80;;;17.20;99.90;;;;;;5056102;28;20460;-72
2021/09/29 07:27:46;;;;;;;31.10;20.10;;;17.20;99.90;;;;;;5055009;28;20464;-72
2021/09/29 07:30:14;;;;;;;39.43;20.53;;;17.20;99.90;;;;;;5054641;28;20999;-72
2021/09/29 07:32:40;;;;;;;47.43;21.23;;;17.20;99.90;;;;;;5054963;28;20469;-71
2021/09/29 07:35:08;;;;;;;53.10;22.43;;;17.20;99.90;;;;;;5054705;28;20463;-72
2021/09/29 07:37:35;;;;;;;32.10;19.73;;;17.20;99.90;;;;;;5054894;28;20463;-74
2021/09/29 07:40:02;;;;;;;34.23;20.60;;;17.30;99.90;;;;;;5054236;28;20460;-71
2021/09/29 07:42:28;;;;;;;31.83;19.97;;;17.30;99.90;;;;;;5054489;28;20535;-72
2021/09/29 07:44:56;;;;;;;34.83;20.80;;;17.30;99.90;;;;;;5054561;28;20459;-72
2021/09/29 07:47:23;;;;;;;30.40;19.73;;;17.30;99.90;;;;;;5053906;28;21027;-72
2021/09/29 07:49:50;;;;;;;39.93;21.53;;;17.40;99.90;;;;;;5054734;28;20471;-72
2021/09/29 07:52:16;;;;;;;30.80;20.50;;;17.40;99.90;;;;;;5054011;28;20459;-72
2021/09/29 07:54:43;;;;;;;37.03;20.30;;;17.40;99.90;;;;;;5054456;28;20466;-72
2021/09/29 07:57:10;;;;;;;32.67;20.13;;;17.50;99.90;;;;;;5053965;28;20467;-72
2021/09/29 07:59:37;;;;;;;30.27;19.30;;;17.50;99.90;;;;;;5054017;28;20455;-72
2021/09/29 08:02:05;;;;;;;30.30;18.80;;;17.50;99.90;;;;;;5054251;28;20466;-72
2021/09/29 08:04:32;;;;;;;32.87;19.47;;;17.50;99.90;;;;;;5053944;28;20464;-72
2021/09/29 08:06:59;;;;;;;29.87;19.77;;;17.50;99.90;;;;;;5053976;28;20463;-72
2021/09/29 08:09:27;;;;;;;33.57;19.80;;;17.50;99.90;;;;;;5054251;28;20475;-72
2021/09/29 08:11:53;;;;;;;35.60;21.07;;;17.50;99.90;;;;;;5054314;28;20471;-71
2021/09/29 08:14:20;;;;;;;36.10;21.07;;;17.40;99.90;;;;;;5054006;28;20455;-72
2021/09/29 08:16:48;;;;;;;37.37;23.00;;;17.40;99.90;;;;;;5053695;28;20940;-72
2021/09/29 08:19:16;;;;;;;31.60;19.67;;;17.40;99.90;;;;;;5053725;28;20455;-71
2021/09/29 08:21:45;;;;;;;29.50;19.37;;;17.40;99.90;;;;;;5053847;28;20459;-72
2021/09/29 08:24:13;;;;;;;31.53;20.40;;;17.40;99.90;;;;;;5053840;28;20744;-72
2021/09/29 08:26:56;;;;;;;34.00;20.30;;;17.30;99.90;;;;;;5053990;28;20466;-72
2021/09/29 08:29:35;;;;;;;27.73;19.90;;;17.20;99.90;;;;;;5053800;28;20468;-72
2021/09/29 08:34:51;;;;;;;36.00;21.40;;;17.00;99.90;;;;;;5055836;28;20444;-72
2021/09/29 08:40:06;;;;;;;33.73;22.13;;;16.90;99.90;;;;;;5056731;28;20461;-71
2021/09/29 08:42:39;;;;;;;37.57;22.20;;;16.90;99.90;;;;;;5057647;28;20537;-71
2021/09/29 08:45:12;;;;;;;41.80;25.17;;;16.90;99.90;;;;;;5057544;28;20513;-73
2021/09/29 08:47:45;;;;;;;46.73;24.40;;;16.90;99.90;;;;;;5057717;28;20980;-72
2021/09/29 08:50:20;;;;;;;43.30;24.83;;;16.90;99.90;;;;;;5057429;28;20478;-72
2021/09/29 08:53:19;;;;;;;40.70;23.90;;;16.80;99.90;;;;;;5057682;28;20775;-73
2021/09/29 09:15:40;;;;;;;44.33;27.83;;;16.60;99.90;;;;;;5056744;28;20518;-72
2021/09/29 09:18:07;;;;;;;40.53;24.47;;;16.60;99.90;;;;;;5057621;28;20533;-73
2021/09/29 09:20:36;;;;;;;42.60;27.10;;;16.50;99.90;;;;;;5057065;28;20466;-74
2021/09/29 09:23:04;;;;;;;48.53;27.87;;;16.50;99.90;;;;;;5056810;28;20460;-72
2021/09/29 09:25:37;;;;;;;48.33;27.93;;;16.50;99.90;;;;;;5057123;28;20455;-72
2021/09/29 09:28:04;;;;;;;54.07;29.17;;;16.50;99.90;;;;;;5057001;28;20877;-72
2021/09/29 09:30:33;;;;;;;54.00;30.10;;;16.50;99.90;;;;;;5057203;28;20569;-73
2021/09/29 09:33:00;;;;;;;55.73;29.10;;;16.40;99.90;;;;;;5057080;28;20465;-73
2021/09/29 09:35:31;;;;;;;54.17;30.00;;;16.40;99.90;;;;;;5056842;28;20451;-73
2021/09/29 09:37:59;;;;;;;58.90;29.83;;;16.40;99.90;;;;;;5056801;28;20452;-72
2021/09/29 09:40:30;;;;;;;55.83;30.50;;;16.40;99.90;;;;;;5057028;28;20502;-72
2021/09/29 09:42:58;;;;;;;52.73;30.30;;;16.30;99.90;;;;;;5056517;28;20440;-72
2021/09/29 09:45:41;;;;;;;53.63;28.33;;;16.40;99.90;;;;;;5056584;28;20459;-72
2021/09/29 09:48:21;;;;;;;54.73;31.90;;;16.40;99.90;;;;;;5056410;28;20538;-72
2021/09/29 09:50:48;;;;;;;47.00;27.70;;;16.40;99.90;;;;;;5056321;28;20659;-72
2021/09/29 09:53:16;;;;;;;52.60;30.90;;;16.30;99.90;;;;;;5056210;28;20521;-71
2021/09/29 09:55:44;;;;;;;54.50;29.90;;;16.30;99.90;;;;;;5056674;28;20463;-72
2021/09/29 09:58:11;;;;;;;55.20;30.33;;;16.30;99.90;;;;;;5056523;28;20471;-71
2021/09/29 10:00:38;;;;;;;54.57;29.73;;;16.40;99.90;;;;;;5057427;28;20941;-71
2021/09/29 10:03:06;;;;;;;52.60;27.90;;;16.40;99.90;;;;;;5058248;28;20455;-71
2021/09/29 10:05:36;;;;;;;46.87;29.03;;;16.40;99.90;;;;;;5056791;28;20463;-71
2021/09/29 10:08:06;;;;;;;51.50;30.07;;;16.40;99.90;;;;;;5056611;28;20982;-71
2021/09/29 10:10:39;;;;;;;48.67;28.17;;;16.40;99.90;;;;;;5056719;28;20975;-71
2021/09/29 10:13:31;;;;;;;47.30;28.10;;;16.50;99.90;;;;;;5056929;28;20444;-71
2021/09/29 10:27:18;;;;;;;52.57;28.83;;;16.70;99.90;;;;;;5058785;28;20470;-70
2021/09/29 10:29:51;;;;;;;49.13;26.97;;;16.70;99.90;;;;;;5058458;28;20475;-70
2021/09/29 10:32:22;;;;;;;53.87;29.07;;;16.70;99.90;;;;;;5057243;28;20464;-70
2021/09/29 10:34:58;;;;;;;42.50;27.63;;;16.70;99.90;;;;;;5056741;28;20447;-70
2021/09/29 10:37:49;;;;;;;54.40;30.50;;;16.60;99.90;;;;;;5056827;28;20454;-70
2021/09/29 10:43:22;;;;;;;40.93;25.83;;;16.60;99.90;;;;;;5043568;28;20588;-70
2021/09/29 10:46:01;;;;;;;39.67;26.50;;;16.60;99.90;;;;;;5056808;28;20439;-70
2021/09/29 10:51:44;;;;;;;38.67;25.60;;;16.60;99.90;;;;;;5045844;28;20481;-70
2021/09/29 11:05:52;;;;;;;40.00;26.70;;;16.40;99.90;;;;;;5054626;28;20439;-68
2021/09/29 11:08:42;;;;;;;36.10;25.63;;;16.30;99.90;;;;;;5055090;28;20474;-69
2021/09/29 11:11:43;;;;;;;47.37;29.20;;;16.30;99.90;;;;;;5054755;28;20467;-69
2021/09/29 11:30:44;;;;;;;41.97;25.00;;;16.50;99.90;;;;;;5054251;28;20978;-70
2021/09/29 11:33:25;;;;;;;35.97;22.90;;;16.50;99.90;;;;;;5054447;28;20894;-69
2021/09/29 11:36:01;;;;;;;31.90;22.20;;;16.50;99.90;;;;;;5054661;28;20447;-70
2021/09/29 11:38:49;;;;;;;28.90;21.20;;;16.50;99.90;;;;;;5055398;28;20729;-70
2021/09/29 12:09:05;;;;;;;24.50;18.33;;;16.50;99.90;;;;;;5058469;28;20461;-69
2021/09/29 12:11:41;;;;;;;21.17;17.30;;;16.40;99.90;;;;;;5058355;28;20467;-69
2021/09/29 12:14:14;;;;;;;21.30;17.10;;;16.40;99.90;;;;;;5057953;28;20692;-69
2021/09/29 12:16:41;;;;;;;22.00;16.60;;;16.30;99.90;;;;;;5057835;28;20799;-69
2021/09/29 12:19:11;;;;;;;20.83;15.90;;;16.30;99.90;;;;;;5057982;28;20557;-69
2021/09/29 12:21:41;;;;;;;22.33;16.87;;;16.40;99.90;;;;;;5057927;28;20452;-69
2021/09/29 12:24:12;;;;;;;22.90;17.10;;;16.40;99.90;;;;;;5057673;28;20889;-69
2021/09/29 12:26:48;;;;;;;21.53;17.53;;;16.50;99.90;;;;;;5057952;28;20442;-69
2021/09/29 12:29:20;;;;;;;23.13;16.93;;;16.70;99.90;;;;;;5057790;28;20476;-68
2021/09/29 12:31:57;;;;;;;20.77;16.40;;;16.80;99.90;;;;;;5057622;28;20538;-69
2021/09/29 12:34:33;;;;;;;18.70;16.30;;;17.00;99.90;;;;;;5057733;28;20443;-70
2021/09/29 12:37:10;;;;;;;20.93;16.60;;;17.10;99.90;;;;;;5056898;28;20439;-70
2021/09/29 12:39:38;;;;;;;22.37;17.07;;;17.20;99.90;;;;;;5057460;28;20436;-69
2021/09/29 12:42:06;;;;;;;23.60;17.20;;;17.30;99.90;;;;;;5057150;28;20460;-69
2021/09/29 12:44:32;;;;;;;23.27;17.03;;;17.30;99.90;;;;;;5058022;28;20459;-68
2021/09/29 12:47:07;;;;;;;21.60;16.80;;;17.30;99.90;;;;;;5057585;28;20467;-70
2021/09/29 12:49:34;;;;;;;25.60;17.70;;;17.30;99.90;;;;;;5056853;28;20439;-69
2021/09/29 12:52:09;;;;;;;23.57;17.70;;;17.40;99.90;;;;;;5057267;28;20474;-71
2021/09/29 12:54:42;;;;;;;18.27;14.83;;;17.30;99.90;;;;;;5057605;28;20756;-69
2021/09/29 12:57:09;;;;;;;20.13;15.10;;;17.30;99.90;;;;;;5057774;28;20850;-69
2021/09/29 12:59:36;;;;;;;20.97;14.40;;;17.20;99.90;;;;;;5057293;28;20478;-69
2021/09/29 13:02:02;;;;;;;20.33;15.43;;;17.20;99.90;;;;;;5057349;28;20455;-69
2021/09/29 13:04:29;;;;;;;19.27;13.90;;;17.20;99.90;;;;;;5056869;28;20462;-69
2021/09/29 13:06:56;;;;;;;19.50;15.20;;;17.30;99.90;;;;;;5057243;28;20455;-70
2021/09/29 13:09:23;;;;;;;18.43;14.43;;;17.30;99.90;;;;;;5057172;28;20463;-69
2021/09/29 13:11:51;;;;;;;17.27;13.70;;;17.30;99.90;;;;;;5056500;28;20967;-69
2021/09/29 13:14:18;;;;;;;18.80;13.90;;;17.40;99.90;;;;;;5057094;28;20932;-70
2021/09/29 13:16:44;;;;;;;18.87;15.03;;;17.50;99.90;;;;;;5056886;28;20580;-69
2021/09/29 13:19:13;;;;;;;16.47;13.03;;;17.60;99.90;;;;;;5055846;28;21038;-70
2021/09/29 13:21:43;;;;;;;20.60;13.00;;;17.90;99.90;;;;;;5057187;28;20464;-69
2021/09/29 13:24:14;;;;;;;17.00;12.27;;;18.20;99.90;;;;;;5057068;28;20550;-70
2021/09/29 13:35:17;;;;;;;16.70;11.27;;;19.20;99.90;;;;;;5056310;28;20437;-69
2021/09/29 13:37:44;;;;;;;10.63;9.53;;;19.00;99.90;;;;;;5056531;28;20443;-70
2021/09/29 13:40:11;;;;;;;12.70;10.40;;;18.90;99.90;;;;;;5056532;28;20454;-69
2021/09/29 13:42:41;;;;;;;14.73;10.77;;;18.70;99.90;;;;;;5056244;28;20525;-69
2021/09/29 13:45:11;;;;;;;15.47;11.17;;;18.50;99.90;;;;;;5056213;28;20457;-70
2021/09/29 13:47:38;;;;;;;12.33;10.90;;;18.30;99.90;;;;;;5056041;28;20456;-70
2021/09/29 13:50:06;;;;;;;11.57;10.10;;;18.10;99.90;;;;;;5056843;28;20505;-69
2021/09/29 13:52:33;;;;;;;12.67;10.73;;;17.90;99.90;;;;;;5055783;28;20463;-69
2021/09/29 13:55:03;;;;;;;13.17;11.33;;;17.80;99.90;;;;;;5056123;28;20455;-70
2021/09/29 13:57:33;;;;;;;12.90;10.97;;;17.70;99.90;;;;;;5056141;28;20800;-69
2021/09/29 14:00:12;;;;;;;13.83;11.40;;;17.50;99.90;;;;;;5056801;28;20458;-69
2021/09/29 14:02:56;;;;;;;14.80;10.97;;;17.40;99.90;;;;;;5056354;28;20451;-69
2021/09/29 14:30:05;;;;;;;15.90;11.43;;;17.80;99.90;;;;;;5055010;28;20443;-69
2021/09/29 14:32:33;;;;;;;17.03;11.23;;;18.10;99.90;;;;;;5056275;28;20461;-69
2021/09/29 14:35:01;;;;;;;13.57;10.17;;;18.40;99.90;;;;;;5055368;28;20463;-69
2021/09/29 14:37:28;;;;;;;13.70;10.90;;;18.70;99.90;;;;;;5054781;28;20549;-70
2021/09/29 14:39:55;;;;;;;13.73;11.30;;;19.10;99.90;;;;;;5055111;28;20463;-69
2021/09/29 14:42:21;;;;;;;11.23;9.70;;;19.50;99.90;;;;;;5055161;28;20468;-70
2021/09/29 14:44:48;;;;;;;11.67;10.20;;;20.10;99.90;;;;;;5054971;28;20550;-70
2021/09/29 14:47:15;;;;;;;13.03;9.50;;;20.50;99.90;;;;;;5054906;28;20470;-70
2021/09/29 14:49:43;;;;;;;13.30;10.03;;;20.40;99.90;;;;;;5055154;28;20765;-68
2021/09/29 14:52:13;;;;;;;15.33;11.90;;;20.20;99.90;;;;;;5054680;28;20478;-69